DCAE Cosford Airport


Codes: EGWC/
Name: DCAE Cosford Airport
City: Cosford
Country: United Kingdom
Elevation: 272 ft.
Website:
Wikipedia:

Photos at DCAE Cosford Airport


   Photos courtesy of SpottingLog. You can add your own sightings and photos by signing up for a free trial today.



XX335, 11-Jun-2023
© MARK HARROP

G-ACGL, 10-Apr-2022
© Dennis Barney

G-EBMB, 10-Apr-2022
© Dennis Barney

G-APAS, 28-Jun-2021
© Dennis Barney

XL993, 01-Feb-2018
© Simon Fewkes-Ahearne

XS709, 01-Feb-2018
© Simon Fewkes-Ahearne

XM598, 01-Feb-2018
© Simon Fewkes-Ahearne

KN645, 01-Feb-2018
© Simon Fewkes-Ahearne

XM497, 01-Feb-2018
© Simon Fewkes-Ahearne

WL679, 01-Feb-2018
© Simon Fewkes-Ahearne

G-APAS, 01-Feb-2018
© Simon Fewkes-Ahearne

XS639, 01-Feb-2018
© Simon Fewkes-Ahearne


Weather at DCAE Cosford Airport


Time (UTC)DescriptionTempratureWindCloud coverageVisibilityPressureHumidity
16-Jun-2024 00:00Light Rain11°C7 mph, SW93%10000m998hPa97%
16-Jun-2024 03:00Light Rain11°C4 mph, SW95%10000m998hPa97%
16-Jun-2024 06:00Light Rain11°C2 mph, NW98%10000m998hPa93%
16-Jun-2024 09:00Few Clouds14°C7 mph, NW16%10000m1000hPa72%
16-Jun-2024 12:00Scattered Clouds16°C9 mph, W27%10000m1001hPa59%
16-Jun-2024 15:00Broken Clouds18°C11 mph, W62%10000m1001hPa57%
16-Jun-2024 18:00Light Rain16°C11 mph, W39%10000m1002hPa72%
16-Jun-2024 21:00Light Rain10°C7 mph, SW23%10000m1004hPa89%
17-Jun-2024 00:00Clear Sky8°C7 mph, SW10%10000m1005hPa94%
17-Jun-2024 03:00Light Rain9°C7 mph, SW45%10000m1006hPa91%
17-Jun-2024 06:00Broken Clouds11°C7 mph, SW69%10000m1007hPa90%
17-Jun-2024 09:00Light Rain14°C9 mph, W99%10000m1008hPa86%
17-Jun-2024 12:00Light Rain17°C9 mph, W80%10000m1009hPa69%
17-Jun-2024 15:00Light Rain18°C7 mph, NW32%10000m1010hPa67%
17-Jun-2024 18:00Light Rain16°C11 mph, N35%10000m1011hPa84%
17-Jun-2024 21:00Scattered Clouds11°C7 mph, N32%10000m1014hPa89%
18-Jun-2024 00:00Broken Clouds9°C7 mph, NW70%10000m1015hPa92%
18-Jun-2024 03:00Overcast Clouds8°C7 mph, NW100%10000m1016hPa96%
18-Jun-2024 06:00Broken Clouds10°C9 mph, NW79%10000m1017hPa89%
18-Jun-2024 09:00Broken Clouds12°C11 mph, NW75%10000m1018hPa79%
18-Jun-2024 12:00Overcast Clouds14°C11 mph, N89%10000m1018hPa75%
18-Jun-2024 15:00Overcast Clouds15°C7 mph, N100%10000m1019hPa74%
18-Jun-2024 18:00Overcast Clouds15°C9 mph, N100%10000m1020hPa79%
18-Jun-2024 21:00Overcast Clouds10°C7 mph, NW100%10000m1022hPa94%
19-Jun-2024 00:00Overcast Clouds10°C7 mph, NW100%10000m1022hPa93%
19-Jun-2024 03:00Overcast Clouds9°C4 mph, NW99%10000m1023hPa96%
19-Jun-2024 06:00Overcast Clouds11°C2 mph, S91%10000m1024hPa91%
19-Jun-2024 09:00Overcast Clouds15°C4 mph, S98%10000m1024hPa75%
19-Jun-2024 12:00Overcast Clouds18°C7 mph, S100%10000m1023hPa66%
19-Jun-2024 15:00Broken Clouds20°C4 mph, S68%10000m1022hPa61%
19-Jun-2024 18:00Scattered Clouds20°C4 mph, S37%10000m1020hPa70%
19-Jun-2024 21:00Broken Clouds14°C4 mph, SE54%10000m1020hPa87%
20-Jun-2024 00:00Broken Clouds13°C4 mph, S78%10000m1019hPa93%
20-Jun-2024 03:00Scattered Clouds10°C4 mph, SE47%10000m1017hPa92%
20-Jun-2024 06:00Broken Clouds12°C7 mph, NE74%10000m1013hPa82%
20-Jun-2024 09:00Light Rain11°C4 mph, N100%10000m1013hPa91%
20-Jun-2024 12:00Light Rain10°C4 mph, NW100%10000m1011hPa94%
20-Jun-2024 15:00Light Rain11°C7 mph, N100%10000m1009hPa97%
20-Jun-2024 18:00Light Rain12°C7 mph, E100%10000m1007hPa94%
20-Jun-2024 21:00Light Rain11°C4 mph, E100%10000m1007hPa95%